createdAt,value
2022-09-06T00:01:23.755Z,8.85
2022-09-06T00:03:51.041Z,8.91
2022-09-06T00:06:21.633Z,8.82
2022-09-06T00:08:48.757Z,8.88
2022-09-06T00:11:16.867Z,8.88
2022-09-06T00:13:43.992Z,8.77
2022-09-06T00:16:14.974Z,8.71
2022-09-06T00:18:42.422Z,8.52
2022-09-06T00:21:21.496Z,8.60
2022-09-06T00:23:48.312Z,8.57
2022-09-06T00:26:15.532Z,8.65
2022-09-06T00:28:42.277Z,8.51
2022-09-06T00:31:14.670Z,8.48
2022-09-06T00:33:41.623Z,8.44
2022-09-06T00:36:10.878Z,8.27
2022-09-06T00:38:37.994Z,8.18
2022-09-06T00:41:05.871Z,8.31
2022-09-06T00:43:33.066Z,8.23
2022-09-06T00:46:00.186Z,8.26
2022-09-06T00:48:27.133Z,8.37
2022-09-06T00:50:56.727Z,8.31
2022-09-06T00:53:23.707Z,8.24
2022-09-06T00:55:50.375Z,8.27
2022-09-06T00:58:17.247Z,8.16
2022-09-06T01:00:45.042Z,8.19
2022-09-06T01:03:12.282Z,8.20
2022-09-06T01:06:01.462Z,8.31
2022-09-06T01:08:59.670Z,8.32
2022-09-06T01:11:41.626Z,8.23
2022-09-06T01:14:41.097Z,8.16
2022-09-06T01:17:21.516Z,8.14
2022-09-06T01:20:10.309Z,8.19
2022-09-06T01:22:45.938Z,8.18
2022-09-06T01:25:30.824Z,8.18
2022-09-06T01:28:19.188Z,8.06
2022-09-06T01:30:58.238Z,8.08
2022-09-06T01:33:43.750Z,7.92
2022-09-06T01:36:15.026Z,7.97
2022-09-06T01:38:41.784Z,7.90
2022-09-06T01:41:09.260Z,8.03
2022-09-06T01:43:39.678Z,8.08
2022-09-06T01:46:31.391Z,7.96
2022-09-06T01:49:24.584Z,8.02
2022-09-06T01:52:01.446Z,7.95
2022-09-06T01:54:40.378Z,7.82
2022-09-06T01:57:10.088Z,7.79
2022-09-06T01:59:55.549Z,7.68
2022-09-06T02:02:42.444Z,7.68
2022-09-06T02:05:11.630Z,7.66
2022-09-06T02:07:38.896Z,7.60
2022-09-06T02:10:16.581Z,7.59
2022-09-06T02:12:45.290Z,7.57
2022-09-06T02:15:19.177Z,7.73
2022-09-06T02:17:52.601Z,7.71
2022-09-06T02:20:21.405Z,7.70
2022-09-06T02:22:48.459Z,7.73
2022-09-06T02:25:25.419Z,7.59
2022-09-06T02:27:52.187Z,7.63
2022-09-06T02:30:18.944Z,7.63
2022-09-06T02:32:53.921Z,7.57
2022-09-06T02:35:20.633Z,7.63
2022-09-06T02:37:47.323Z,7.50
2022-09-06T02:40:14.329Z,7.48
2022-09-06T02:42:41.954Z,7.50
2022-09-06T02:45:09.031Z,7.36
2022-09-06T02:47:35.754Z,7.29
2022-09-06T02:50:02.526Z,7.20
2022-09-06T02:52:29.241Z,7.24
2022-09-06T02:54:55.851Z,7.17
2022-09-06T02:57:23.196Z,7.16
2022-09-06T02:59:49.869Z,7.13
2022-09-06T03:02:17.143Z,6.98
2022-09-06T03:04:43.881Z,6.87
2022-09-06T03:07:10.591Z,6.84
2022-09-06T03:09:37.242Z,6.83
2022-09-06T03:12:04.014Z,6.87
2022-09-06T03:14:30.711Z,6.95
2022-09-06T03:16:57.511Z,6.87
2022-09-06T03:19:24.269Z,6.93
2022-09-06T03:21:50.910Z,6.82
2022-09-06T03:24:17.547Z,6.84
2022-09-06T03:26:44.551Z,6.75
2022-09-06T03:29:11.200Z,6.75
2022-09-06T03:31:37.857Z,6.71
2022-09-06T03:34:07.984Z,6.69
2022-09-06T03:36:37.030Z,6.86
2022-09-06T03:39:03.795Z,6.93
2022-09-06T03:41:30.515Z,6.88
2022-09-06T03:43:57.281Z,6.89
2022-09-06T03:46:24.101Z,6.87
2022-09-06T03:48:50.764Z,6.87
2022-09-06T03:51:17.528Z,6.83
2022-09-06T03:53:44.391Z,7.40
2022-09-06T03:56:11.066Z,8.37
2022-09-06T03:58:37.808Z,9.06
2022-09-06T04:01:09.933Z,9.38
2022-09-06T04:03:37.332Z,9.86
2022-09-06T04:06:04.925Z,10.21
2022-09-06T04:08:32.071Z,10.29
2022-09-06T04:10:59.508Z,10.26
2022-09-06T04:13:27.372Z,9.81
2022-09-06T04:15:54.040Z,10.13
2022-09-06T04:18:21.500Z,10.47
2022-09-06T04:20:49.535Z,10.42
2022-09-06T04:23:16.541Z,10.74
2022-09-06T04:25:47.830Z,10.67
2022-09-06T04:28:15.021Z,10.88
2022-09-06T04:30:42.083Z,10.71
2022-09-06T04:33:08.804Z,10.80
2022-09-06T04:35:35.649Z,11.28
2022-09-06T04:38:03.308Z,11.40
2022-09-06T04:40:29.973Z,11.42
2022-09-06T04:42:56.651Z,11.16
2022-09-06T04:45:23.352Z,11.35
2022-09-06T04:47:51.690Z,11.17
2022-09-06T04:50:18.436Z,11.36
2022-09-06T04:52:45.185Z,11.17
2022-09-06T04:55:11.844Z,10.57
2022-09-06T04:57:42.525Z,9.72
2022-09-06T05:00:12.152Z,9.80
2022-09-06T05:02:38.863Z,9.70
2022-09-06T05:05:05.945Z,9.78
2022-09-06T05:07:32.621Z,9.84
2022-09-06T05:09:59.313Z,9.62
2022-09-06T05:12:26.091Z,9.67
2022-09-06T05:14:52.791Z,9.71
2022-09-06T05:17:19.427Z,10.01
2022-09-06T05:19:46.073Z,9.89
2022-09-06T05:22:12.770Z,10.54
2022-09-06T05:24:39.564Z,10.37
2022-09-06T05:27:07.589Z,10.01
2022-09-06T05:29:34.355Z,10.10
2022-09-06T05:32:01.039Z,10.23
2022-09-06T05:34:27.754Z,10.25
2022-09-06T05:36:54.373Z,10.30
2022-09-06T05:39:22.038Z,10.24
2022-09-06T05:41:48.744Z,10.18
2022-09-06T05:44:15.431Z,10.39
2022-09-06T05:46:46.268Z,10.43
2022-09-06T05:49:13.650Z,10.60
2022-09-06T05:51:40.945Z,10.36
2022-09-06T05:54:08.065Z,10.42
2022-09-06T05:56:34.851Z,10.28
2022-09-06T05:59:01.626Z,10.13
2022-09-06T06:01:30.284Z,10.57
2022-09-06T06:03:59.006Z,10.67
2022-09-06T06:06:27.105Z,10.75
2022-09-06T06:08:53.866Z,10.81
2022-09-06T06:11:20.909Z,11.07
2022-09-06T06:13:49.419Z,10.94
2022-09-06T06:16:17.367Z,10.85
2022-09-06T06:18:47.629Z,10.87
2022-09-06T06:21:21.678Z,10.88
2022-09-06T06:23:51.767Z,11.19
2022-09-06T06:26:18.422Z,11.38
2022-09-06T06:28:45.176Z,10.98
2022-09-06T06:31:12.439Z,11.58
2022-09-06T06:33:39.809Z,11.68
2022-09-06T06:36:12.478Z,11.74
2022-09-06T06:38:41.182Z,11.59
2022-09-06T06:41:10.180Z,11.74
2022-09-06T06:43:37.971Z,11.69
2022-09-06T06:46:10.844Z,11.73
2022-09-06T06:48:40.695Z,11.82
2022-09-06T06:51:08.331Z,11.96
2022-09-06T06:53:35.540Z,11.94
2022-09-06T06:56:02.671Z,11.87
2022-09-06T06:58:31.186Z,11.77
2022-09-06T07:00:58.006Z,11.77
2022-09-06T07:03:24.678Z,11.79
2022-09-06T07:08:38.324Z,11.98
2022-09-06T07:11:10.098Z,12.01
2022-09-06T07:13:37.184Z,12.16
2022-09-06T07:16:12.552Z,12.14
2022-09-06T07:18:42.459Z,12.51
2022-09-06T07:24:06.585Z,13.34
2022-09-06T07:26:34.039Z,13.62
2022-09-06T07:29:02.458Z,13.17
2022-09-06T07:34:18.023Z,12.60
2022-09-06T07:36:44.882Z,12.71
2022-09-06T07:39:11.571Z,12.68
2022-09-06T07:41:38.222Z,12.37
2022-09-06T07:44:04.877Z,12.34
2022-09-06T07:46:31.748Z,11.97
2022-09-06T07:48:58.469Z,12.44
2022-09-06T07:51:25.090Z,12.69
2022-09-06T07:54:12.724Z,12.98
2022-09-06T07:56:42.110Z,12.72
2022-09-06T07:59:09.398Z,12.79
2022-09-06T08:01:40.077Z,12.64
2022-09-06T08:04:07.624Z,12.68
2022-09-06T08:09:23.318Z,13.02
2022-09-06T08:11:51.183Z,12.80
2022-09-06T08:14:17.818Z,13.27
2022-09-06T08:16:44.524Z,13.15
2022-09-06T08:19:12.522Z,13.13
2022-09-06T08:21:39.611Z,12.75
2022-09-06T08:24:08.273Z,12.78
2022-09-06T08:26:36.526Z,12.52
2022-09-06T08:29:06.882Z,12.24
2022-09-06T08:31:34.511Z,12.12
2022-09-06T08:34:01.711Z,12.34
2022-09-06T08:36:31.714Z,12.33
2022-09-06T08:39:00.083Z,12.65
2022-09-06T08:42:14.380Z,12.76
2022-09-06T08:47:21.743Z,13.11
2022-09-06T08:49:55.568Z,12.90
2022-09-06T08:53:06.069Z,13.48
2022-09-06T08:55:40.754Z,13.82
2022-09-06T08:58:21.207Z,13.54
2022-09-06T09:00:58.818Z,13.01
2022-09-06T09:03:33.375Z,13.45
2022-09-06T09:06:01.710Z,13.44
2022-09-06T09:08:56.945Z,13.01
2022-09-06T09:11:25.684Z,13.41
2022-09-06T09:13:59.391Z,13.28
2022-09-06T09:16:26.573Z,13.61
2022-09-06T09:18:56.485Z,14.24
2022-09-06T09:21:29.606Z,14.03
2022-09-06T09:23:59.450Z,13.40
2022-09-06T09:26:28.903Z,13.71
2022-09-06T09:29:13.166Z,13.99
2022-09-06T09:31:42.531Z,13.52
2022-09-06T09:34:14.368Z,12.87
2022-09-06T09:36:41.281Z,12.99
2022-09-06T09:39:11.672Z,12.90
2022-09-06T09:41:41.466Z,13.06
2022-09-06T09:44:17.814Z,12.93
2022-09-06T09:46:44.940Z,12.95
2022-09-06T09:49:14.116Z,13.21
2022-09-06T09:51:42.243Z,13.39
2022-09-06T09:54:14.201Z,13.50
2022-09-06T09:56:47.621Z,13.58
2022-09-06T09:59:23.363Z,13.76
2022-09-06T10:01:50.281Z,13.68
2022-09-06T10:07:23.879Z,13.69
2022-09-06T10:10:11.660Z,13.64
2022-09-06T10:12:40.020Z,13.48
2022-09-06T10:15:11.887Z,13.70
2022-09-06T10:17:49.058Z,13.86
2022-09-06T10:20:16.564Z,14.01
2022-09-06T10:23:05.172Z,14.25
2022-09-06T10:25:49.761Z,14.33
2022-09-06T10:28:29.691Z,13.83
2022-09-06T10:31:07.965Z,13.90
2022-09-06T10:33:41.109Z,13.89
2022-09-06T10:36:08.278Z,13.80
2022-09-06T10:38:42.385Z,13.89
2022-09-06T10:41:11.987Z,14.18
2022-09-06T10:43:48.451Z,13.86
2022-09-06T10:46:16.336Z,13.91
2022-09-06T10:48:45.873Z,13.78
2022-09-06T10:51:45.788Z,14.01
2022-09-06T10:54:14.007Z,14.48
2022-09-06T10:56:47.751Z,14.31
2022-09-06T11:02:38.206Z,14.62
2022-09-06T11:10:50.015Z,14.49
2022-09-06T11:13:18.502Z,14.37
2022-09-06T11:16:00.129Z,14.17
2022-09-06T11:19:00.501Z,14.24
2022-09-06T11:21:54.299Z,14.08
2022-09-06T11:24:45.986Z,13.93
2022-09-06T11:27:30.694Z,13.70
2022-09-06T11:29:58.102Z,13.58
2022-09-06T11:32:40.484Z,13.60
2022-09-06T11:35:10.252Z,13.68
2022-09-06T11:37:44.730Z,13.42
2022-09-06T11:40:29.945Z,13.20
2022-09-06T11:42:59.437Z,13.11
2022-09-06T11:45:50.174Z,12.94
2022-09-06T11:48:34.482Z,13.12
2022-09-06T11:51:06.835Z,13.38
2022-09-06T11:53:48.886Z,13.45
2022-09-06T11:56:41.367Z,13.86
2022-09-06T11:59:18.717Z,14.04
2022-09-06T12:02:01.889Z,14.11
2022-09-06T12:05:01.371Z,14.21
2022-09-06T12:07:30.039Z,14.62
2022-09-06T12:09:57.061Z,14.49
2022-09-06T12:12:45.836Z,14.23
2022-09-06T12:15:30.224Z,14.53
2022-09-06T12:17:58.409Z,14.62
2022-09-06T12:20:53.087Z,14.35
2022-09-06T12:23:34.910Z,14.09
2022-09-06T12:26:03.456Z,14.28
2022-09-06T12:28:53.757Z,14.24
2022-09-06T12:31:27.573Z,13.97
2022-09-06T12:33:55.264Z,14.08
2022-09-06T12:36:31.132Z,14.57
2022-09-06T12:39:09.254Z,14.54
2022-09-06T12:41:44.289Z,14.48
2022-09-06T12:44:11.945Z,14.14
2022-09-06T12:46:43.695Z,14.54
2022-09-06T12:49:11.928Z,14.50
2022-09-06T12:51:40.347Z,14.16
2022-09-06T12:54:21.058Z,14.56
2022-09-06T12:56:47.810Z,14.82
2022-09-06T12:59:25.290Z,15.24
2022-09-06T13:02:01.059Z,15.01
2022-09-06T13:04:36.698Z,14.84
2022-09-06T13:07:05.081Z,14.45
2022-09-06T13:09:31.957Z,14.23
2022-09-06T13:12:07.471Z,14.29
2022-09-06T13:14:34.953Z,14.52
2022-09-06T13:17:02.123Z,14.48
2022-09-06T13:19:31.581Z,14.21
2022-09-06T13:21:59.018Z,13.38
2022-09-06T13:24:35.442Z,13.70
2022-09-06T13:27:25.604Z,13.43
2022-09-06T13:30:03.761Z,13.50
2022-09-06T13:32:30.615Z,14.00
2022-09-06T13:34:58.793Z,13.99
2022-09-06T13:37:28.073Z,14.26
2022-09-06T13:39:55.237Z,14.17
2022-09-06T13:42:27.567Z,14.24
2022-09-06T13:45:01.263Z,14.34
2022-09-06T13:47:29.827Z,13.99
2022-09-06T13:49:56.559Z,14.27
2022-09-06T13:52:23.601Z,14.29
2022-09-06T13:54:50.299Z,14.17
2022-09-06T13:57:20.002Z,14.18
2022-09-06T13:59:50.286Z,14.05
2022-09-06T14:02:19.478Z,13.79
2022-09-06T14:04:46.320Z,13.76
2022-09-06T14:07:13.169Z,13.68
2022-09-06T14:09:39.859Z,13.56
2022-09-06T14:12:30.783Z,13.60
2022-09-06T14:14:57.498Z,13.56
2022-09-06T14:17:24.135Z,13.61
2022-09-06T14:19:51.086Z,13.48
2022-09-06T14:22:17.784Z,13.45
2022-09-06T14:24:44.444Z,13.35
2022-09-06T14:27:11.205Z,13.34
2022-09-06T14:29:40.317Z,13.26
2022-09-06T14:32:07.298Z,13.09
2022-09-06T14:34:34.052Z,12.88
2022-09-06T14:37:00.792Z,13.06
2022-09-06T14:39:27.741Z,13.01
2022-09-06T14:41:54.452Z,12.88
2022-09-06T14:44:21.629Z,12.80
2022-09-06T14:46:49.214Z,12.92
2022-09-06T14:49:16.200Z,12.82
2022-09-06T14:51:43.579Z,12.99
2022-09-06T14:54:12.449Z,13.10
2022-09-06T14:56:40.625Z,13.14
2022-09-06T14:59:09.359Z,13.06
2022-09-06T15:01:38.663Z,13.08
2022-09-06T15:04:07.125Z,13.07
2022-09-06T15:06:36.962Z,13.02
2022-09-06T15:09:05.417Z,13.14
2022-09-06T15:11:37.971Z,13.21
2022-09-06T15:14:08.095Z,13.10
2022-09-06T15:16:36.051Z,13.03
2022-09-06T15:19:02.962Z,12.87
2022-09-06T15:21:30.549Z,12.85
2022-09-06T15:23:57.530Z,12.81
2022-09-06T15:26:25.314Z,12.75
2022-09-06T15:28:52.323Z,12.85
2022-09-06T15:31:19.697Z,12.83
2022-09-06T15:33:48.920Z,12.88
2022-09-06T15:36:16.364Z,13.01
2022-09-06T15:38:45.181Z,12.97
2022-09-06T15:41:13.929Z,12.88
2022-09-06T15:43:45.154Z,12.84
2022-09-06T15:46:11.936Z,12.70
2022-09-06T15:48:43.923Z,12.67
2022-09-06T15:51:12.486Z,12.56
2022-09-06T15:53:39.326Z,12.51
2022-09-06T15:56:07.612Z,12.49
2022-09-06T15:58:34.401Z,12.43
2022-09-06T16:01:34.110Z,12.46
2022-09-06T16:04:05.803Z,12.39
2022-09-06T16:06:38.270Z,12.30
2022-09-06T16:09:08.805Z,12.27
2022-09-06T16:11:36.992Z,12.15
2022-09-06T16:14:10.418Z,12.16
2022-09-06T16:16:37.452Z,12.12
2022-09-06T16:19:04.254Z,11.98
2022-09-06T16:21:32.949Z,11.99
2022-09-06T16:24:02.171Z,11.83
2022-09-06T16:26:35.548Z,11.87
2022-09-06T16:29:03.206Z,11.89
2022-09-06T16:31:30.329Z,11.72
2022-09-06T16:33:58.035Z,11.66
2022-09-06T16:36:25.763Z,11.66
2022-09-06T16:38:52.590Z,11.62
2022-09-06T16:41:29.100Z,11.48
2022-09-06T16:43:56.047Z,11.46
2022-09-06T16:46:25.199Z,11.51
2022-09-06T16:48:56.430Z,11.54
2022-09-06T16:51:24.792Z,11.40
2022-09-06T16:53:52.263Z,11.48
2022-09-06T16:56:24.421Z,11.23
2022-09-06T16:58:55.168Z,11.37
2022-09-06T17:01:22.651Z,11.33
2022-09-06T17:03:49.807Z,11.39
2022-09-06T17:06:17.054Z,11.33
2022-09-06T17:08:43.942Z,11.31
2022-09-06T17:11:21.357Z,11.23
2022-09-06T17:13:49.950Z,11.24
2022-09-06T17:16:36.214Z,11.22
2022-09-06T17:19:03.617Z,11.09
2022-09-06T17:21:32.070Z,11.07
2022-09-06T17:24:03.151Z,10.99
2022-09-06T17:26:35.445Z,11.01
2022-09-06T17:29:04.207Z,11.06
2022-09-06T17:31:31.609Z,10.95
2022-09-06T17:33:59.811Z,11.02
2022-09-06T17:36:32.343Z,11.00
2022-09-06T17:39:10.717Z,10.96
2022-09-06T17:41:40.045Z,10.88
2022-09-06T17:44:08.490Z,10.79
2022-09-06T17:46:35.378Z,10.80
2022-09-06T17:49:02.307Z,10.75
2022-09-06T17:51:29.246Z,10.71
2022-09-06T17:53:56.007Z,10.68
2022-09-06T17:56:23.342Z,10.61
2022-09-06T17:59:01.559Z,10.49
2022-09-06T18:01:30.970Z,10.34
2022-09-06T18:03:58.467Z,10.26
2022-09-06T18:06:26.573Z,10.15
2022-09-06T18:08:55.303Z,10.09
2022-09-06T18:11:25.122Z,10.12
2022-09-06T18:14:06.783Z,10.06
2022-09-06T18:16:35.292Z,10.06
2022-09-06T18:19:05.390Z,10.04
2022-09-06T18:21:34.284Z,9.95
2022-09-06T18:24:01.090Z,10.23
2022-09-06T18:26:27.876Z,10.18
2022-09-06T18:28:54.849Z,10.14
2022-09-06T18:31:23.846Z,10.13
2022-09-06T18:33:52.390Z,10.00
2022-09-06T18:36:20.420Z,9.98
2022-09-06T18:38:48.964Z,10.06
2022-09-06T18:41:36.093Z,9.96
2022-09-06T18:44:05.719Z,10.05
2022-09-06T18:46:36.241Z,9.90
2022-09-06T18:49:03.084Z,9.75
2022-09-06T18:51:31.360Z,9.73
2022-09-06T18:53:59.461Z,9.69
2022-09-06T18:56:28.376Z,9.72
2022-09-06T18:58:58.361Z,9.75
2022-09-06T19:01:26.340Z,9.95
2022-09-06T19:03:53.136Z,10.02
2022-09-06T19:06:21.257Z,10.06
2022-09-06T19:08:49.111Z,9.91
2022-09-06T19:11:17.824Z,10.04
2022-09-06T19:13:45.930Z,10.19
2022-09-06T19:16:14.124Z,10.32
2022-09-06T19:18:41.099Z,10.24
2022-09-06T19:21:13.687Z,10.35
2022-09-06T19:23:45.523Z,10.26
2022-09-06T19:26:17.799Z,10.19
2022-09-06T19:28:52.739Z,10.16
2022-09-06T19:31:20.351Z,10.18
2022-09-06T19:33:48.633Z,10.27
2022-09-06T19:36:16.469Z,10.26
2022-09-06T19:41:30.797Z,10.34
2022-09-06T19:43:58.622Z,10.29
2022-09-06T19:46:25.796Z,10.22
2022-09-06T19:48:54.107Z,10.14
2022-09-06T19:51:21.563Z,10.17
2022-09-06T19:53:52.314Z,10.10
2022-09-06T19:56:40.898Z,10.05
2022-09-06T19:59:10.102Z,9.91
2022-09-06T20:01:38.568Z,9.70
2022-09-06T20:04:07.623Z,9.53
2022-09-06T20:06:35.363Z,9.38
2022-09-06T20:09:03.523Z,9.30
2022-09-06T20:11:32.029Z,9.25
2022-09-06T20:13:59.738Z,9.34
2022-09-06T20:16:27.205Z,9.32
2022-09-06T20:18:59.111Z,9.35
2022-09-06T20:21:27.503Z,9.21
2022-09-06T20:23:56.769Z,8.99
2022-09-06T20:26:25.418Z,8.71
2022-09-06T20:28:56.867Z,8.78
2022-09-06T20:31:27.219Z,8.59
2022-09-06T20:33:59.931Z,8.82
2022-09-06T20:36:27.883Z,8.97
2022-09-06T20:38:54.659Z,8.78
2022-09-06T20:41:25.265Z,8.78
2022-09-06T20:43:53.527Z,8.70
2022-09-06T20:46:22.404Z,8.66
2022-09-06T20:48:49.565Z,8.59
2022-09-06T20:51:21.593Z,8.55
2022-09-06T20:53:55.203Z,8.56
2022-09-06T20:56:24.323Z,8.63
2022-09-06T20:58:56.127Z,8.61
2022-09-06T21:01:25.121Z,8.69
2022-09-06T21:03:59.537Z,8.65
2022-09-06T21:06:28.777Z,8.56
2022-09-06T21:08:56.051Z,8.33
2022-09-06T21:11:22.981Z,8.12
2022-09-06T21:13:53.433Z,7.93
2022-09-06T21:16:24.598Z,7.71
2022-09-06T21:18:56.909Z,7.57
2022-09-06T21:21:25.466Z,7.50
2022-09-06T21:23:52.400Z,7.53
2022-09-06T21:26:19.254Z,7.51
2022-09-06T21:28:46.874Z,7.57
2022-09-06T21:31:22.432Z,7.69
2022-09-06T21:33:52.704Z,7.69
2022-09-06T21:36:24.595Z,7.88
2022-09-06T21:38:55.682Z,7.93
2022-09-06T21:41:22.981Z,7.93
2022-09-06T21:43:54.423Z,7.87
2022-09-06T21:46:22.572Z,7.73
2022-09-06T21:48:50.688Z,7.62
2022-09-06T21:51:20.130Z,7.56
2022-09-06T21:53:48.694Z,7.48
2022-09-06T21:56:16.075Z,7.43
2022-09-06T21:58:44.276Z,7.52
2022-09-06T22:01:11.092Z,7.53
2022-09-06T22:03:40.387Z,7.60
2022-09-06T22:06:17.850Z,7.55
2022-09-06T22:08:45.112Z,7.48
2022-09-06T22:11:14.260Z,7.49
2022-09-06T22:13:41.336Z,7.47
2022-09-06T22:16:08.767Z,7.31
2022-09-06T22:18:35.869Z,7.37
2022-09-06T22:21:07.960Z,7.25
2022-09-06T22:23:35.058Z,7.06
2022-09-06T22:26:09.207Z,7.12
2022-09-06T22:28:36.110Z,7.01
2022-09-06T22:31:02.953Z,6.91
2022-09-06T22:33:30.222Z,6.78
2022-09-06T22:35:57.506Z,6.79
2022-09-06T22:38:24.467Z,6.81
2022-09-06T22:40:51.232Z,6.79
2022-09-06T22:43:17.881Z,6.80
2022-09-06T22:45:49.817Z,6.67
2022-09-06T22:48:18.446Z,6.52
2022-09-06T22:50:45.692Z,6.49
2022-09-06T22:53:12.627Z,6.42
2022-09-06T22:55:39.427Z,6.26
2022-09-06T22:58:06.193Z,6.24
2022-09-06T23:00:36.109Z,6.27
2022-09-06T23:03:02.949Z,6.16
2022-09-06T23:05:31.577Z,6.16
2022-09-06T23:08:00.358Z,6.17
2022-09-06T23:10:27.766Z,6.00
2022-09-06T23:12:55.034Z,6.07
2022-09-06T23:15:21.725Z,6.19
2022-09-06T23:17:48.496Z,6.09
2022-09-06T23:20:15.306Z,6.10
2022-09-06T23:22:42.139Z,5.88
2022-09-06T23:25:09.185Z,6.15
2022-09-06T23:27:36.037Z,6.17
2022-09-06T23:30:03.723Z,6.11
2022-09-06T23:32:32.081Z,6.05
2022-09-06T23:34:58.871Z,6.09
2022-09-06T23:37:25.552Z,6.38
2022-09-06T23:39:52.698Z,6.18
2022-09-06T23:42:19.733Z,6.32
2022-09-06T23:44:46.522Z,6.40
2022-09-06T23:47:13.353Z,6.46
2022-09-06T23:49:40.025Z,6.55
2022-09-06T23:52:06.858Z,6.59
2022-09-06T23:54:33.523Z,6.68
2022-09-06T23:57:00.241Z,6.71
2022-09-06T23:59:26.959Z,6.54
